createdAt,value
2017-09-12T00:00:42.121Z,2.20
2017-09-12T00:03:10.879Z,3.00
2017-09-12T00:05:40.495Z,2.30
2017-09-12T00:08:10.987Z,2.60
2017-09-12T00:10:40.851Z,2.53
2017-09-12T00:13:09.719Z,2.40
2017-09-12T00:15:38.871Z,2.50
2017-09-12T00:18:08.251Z,2.37
2017-09-12T00:20:37.221Z,2.37
2017-09-12T00:23:06.654Z,2.80
2017-09-12T00:25:36.242Z,2.70
2017-09-12T00:28:04.617Z,3.17
2017-09-12T00:30:33.736Z,3.00
2017-09-12T00:33:02.348Z,2.63
2017-09-12T00:35:30.719Z,2.60
2017-09-12T00:37:59.579Z,2.10
2017-09-12T00:40:29.201Z,3.27
2017-09-12T00:42:57.551Z,3.03
2017-09-12T00:45:26.819Z,2.30
2017-09-12T00:47:56.330Z,2.50
2017-09-12T00:50:24.675Z,2.60
2017-09-12T00:52:53.644Z,2.73
2017-09-12T00:55:22.893Z,2.60
2017-09-12T00:57:51.314Z,2.73
2017-09-12T01:00:19.741Z,3.20
2017-09-12T01:02:48.620Z,2.10
2017-09-12T01:05:16.955Z,2.43
2017-09-12T01:07:46.551Z,2.30
2017-09-12T01:10:15.263Z,2.73
2017-09-12T01:12:43.616Z,2.40
2017-09-12T01:15:11.995Z,2.83
2017-09-12T01:17:41.886Z,2.90
2017-09-12T01:20:11.890Z,2.90
2017-09-12T01:22:40.233Z,2.77
2017-09-12T01:25:10.659Z,3.20
2017-09-12T01:27:39.765Z,3.23
2017-09-12T01:30:08.111Z,3.27
2017-09-12T01:32:37.528Z,2.73
2017-09-12T01:35:06.019Z,3.30
2017-09-12T01:37:36.244Z,3.63
2017-09-12T01:40:05.647Z,3.67
2017-09-12T01:42:34.063Z,3.77
2017-09-12T01:45:02.403Z,3.13
2017-09-12T01:47:32.826Z,3.30
2017-09-12T01:50:01.967Z,3.87
2017-09-12T01:52:30.298Z,3.30
2017-09-12T01:55:00.697Z,3.93
2017-09-12T01:57:29.081Z,3.33
2017-09-12T01:59:57.503Z,3.40
2017-09-12T02:02:26.939Z,3.60
2017-09-12T02:04:55.350Z,3.50
2017-09-12T02:07:23.765Z,3.10
2017-09-12T02:09:53.104Z,3.30
2017-09-12T02:12:21.457Z,2.97
2017-09-12T02:14:49.903Z,3.70
2017-09-12T02:17:20.711Z,3.63
2017-09-12T02:19:49.108Z,3.60
2017-09-12T02:22:17.490Z,3.77
2017-09-12T02:24:46.242Z,4.10
2017-09-12T02:27:14.750Z,4.63
2017-09-12T02:29:43.127Z,4.03
2017-09-12T02:32:12.199Z,3.63
2017-09-12T02:34:41.321Z,3.83
2017-09-12T02:37:09.696Z,3.30
2017-09-12T02:39:38.385Z,3.30
2017-09-12T02:42:06.829Z,4.10
2017-09-12T02:44:35.230Z,3.83
2017-09-12T02:47:04.121Z,3.80
2017-09-12T02:49:32.527Z,3.70
2017-09-12T02:52:00.956Z,3.50
2017-09-12T02:54:30.195Z,4.13
2017-09-12T02:57:00.924Z,3.90
2017-09-12T02:59:29.334Z,3.43
2017-09-12T03:01:58.219Z,3.80
2017-09-12T03:04:26.592Z,4.27
2017-09-12T03:06:55.047Z,3.47
2017-09-12T03:09:23.976Z,4.43
2017-09-12T03:11:53.173Z,3.90
2017-09-12T03:14:21.562Z,3.77
2017-09-12T03:16:51.033Z,3.30
2017-09-12T03:19:19.469Z,4.20
2017-09-12T03:21:47.912Z,3.77
2017-09-12T03:24:16.536Z,4.27
2017-09-12T03:26:45.692Z,4.90
2017-09-12T03:29:14.077Z,4.20
2017-09-12T03:31:42.745Z,3.70
2017-09-12T03:34:12.505Z,4.20
2017-09-12T03:36:40.865Z,4.87
2017-09-12T03:39:09.844Z,4.60
2017-09-12T03:41:38.257Z,3.90
2017-09-12T03:44:06.715Z,4.00
2017-09-12T03:46:35.434Z,4.10
2017-09-12T03:49:03.873Z,4.10
2017-09-12T03:51:32.279Z,4.70
2017-09-12T03:54:01.005Z,4.10
2017-09-12T03:56:29.425Z,4.03
2017-09-12T03:58:57.848Z,4.10
2017-09-12T04:01:28.231Z,4.57
2017-09-12T04:03:56.783Z,4.50
2017-09-12T04:06:25.181Z,4.70
2017-09-12T04:08:54.907Z,3.83
2017-09-12T04:11:23.264Z,3.80
2017-09-12T04:13:51.601Z,4.30
2017-09-12T04:16:20.237Z,4.27
2017-09-12T04:18:48.826Z,4.33
2017-09-12T04:21:18.503Z,4.23
2017-09-12T04:23:47.778Z,3.63
2017-09-12T04:26:16.953Z,4.60
2017-09-12T04:28:46.111Z,4.27
2017-09-12T04:31:15.533Z,3.97
2017-09-12T04:33:44.463Z,5.17
2017-09-12T04:36:13.569Z,4.50
2017-09-12T04:38:42.351Z,4.27
2017-09-12T04:41:10.764Z,3.73
2017-09-12T04:43:40.780Z,4.10
2017-09-12T04:46:10.013Z,3.90
2017-09-12T04:48:38.475Z,4.30
2017-09-12T04:51:07.561Z,4.43
2017-09-12T04:53:36.409Z,4.23
2017-09-12T04:56:06.275Z,4.50
2017-09-12T04:58:35.281Z,4.40
2017-09-12T05:01:04.045Z,4.80
2017-09-12T05:03:33.389Z,4.43
2017-09-12T05:06:03.233Z,5.00
2017-09-12T05:08:32.066Z,4.03
2017-09-12T05:11:00.405Z,4.27
2017-09-12T05:13:29.532Z,3.90
2017-09-12T05:15:58.181Z,3.80
2017-09-12T05:18:27.311Z,4.40
2017-09-12T05:20:55.695Z,4.53
2017-09-12T05:23:24.956Z,4.20
2017-09-12T05:25:53.328Z,4.30
2017-09-12T05:28:21.709Z,3.80
2017-09-12T05:30:51.528Z,4.80
2017-09-12T05:33:20.238Z,4.17
2017-09-12T05:35:48.609Z,4.13
2017-09-12T05:38:18.825Z,4.43
2017-09-12T05:40:47.194Z,4.47
2017-09-12T05:43:15.555Z,4.07
2017-09-12T05:45:44.264Z,4.30
2017-09-12T05:48:13.371Z,5.27
2017-09-12T05:50:41.724Z,5.20
2017-09-12T05:53:12.340Z,4.93
2017-09-12T05:55:40.669Z,3.60
2017-09-12T05:58:10.428Z,4.10
2017-09-12T06:00:39.284Z,3.70
2017-09-12T06:03:07.616Z,3.57
2017-09-12T06:05:37.201Z,4.37
2017-09-12T06:08:05.835Z,4.87
2017-09-12T06:10:35.094Z,4.17
2017-09-12T06:13:04.225Z,4.80
2017-09-12T06:15:33.178Z,4.30
2017-09-12T06:18:01.524Z,4.57
2017-09-12T06:20:29.875Z,4.67
2017-09-12T06:22:59.856Z,4.60
2017-09-12T06:25:28.975Z,5.70
2017-09-12T06:27:59.934Z,5.47
2017-09-12T06:30:28.608Z,5.33
2017-09-12T06:32:56.941Z,5.40
2017-09-12T06:35:27.087Z,4.90
2017-09-12T06:37:55.904Z,5.20
2017-09-12T06:40:24.262Z,5.10
2017-09-12T06:42:53.384Z,4.97
2017-09-12T06:45:22.009Z,5.70
2017-09-12T06:47:51.159Z,5.33
2017-09-12T06:50:20.288Z,5.70
2017-09-12T06:52:49.020Z,5.27
2017-09-12T06:55:17.392Z,5.67
2017-09-12T06:57:45.766Z,5.80
2017-09-12T07:00:15.575Z,5.60
2017-09-12T07:02:44.755Z,5.73
2017-09-12T07:05:13.366Z,5.97
2017-09-12T07:07:42.243Z,5.33
2017-09-12T07:10:10.696Z,4.90
2017-09-12T07:12:39.261Z,6.03
2017-09-12T07:15:07.917Z,5.20
2017-09-12T07:17:36.827Z,5.43
2017-09-12T07:20:05.994Z,5.67
2017-09-12T07:22:34.946Z,5.17
2017-09-12T07:25:03.261Z,6.13
2017-09-12T07:27:31.633Z,5.13
2017-09-12T07:30:00.285Z,5.87
2017-09-12T07:32:28.669Z,6.47
2017-09-12T07:34:56.998Z,5.93
2017-09-12T07:37:25.799Z,5.97
2017-09-12T07:39:54.185Z,6.37
2017-09-12T07:42:23.987Z,7.10
2017-09-12T07:44:54.189Z,6.53
2017-09-12T07:47:23.542Z,7.20
2017-09-12T07:49:52.429Z,6.20
2017-09-12T07:52:21.177Z,6.63
2017-09-12T07:54:49.559Z,6.93
2017-09-12T07:57:19.382Z,6.40
2017-09-12T07:59:48.789Z,7.10
2017-09-12T08:02:18.670Z,6.40
2017-09-12T08:04:47.022Z,7.23
2017-09-12T08:07:16.612Z,7.60
2017-09-12T08:09:46.017Z,7.70
2017-09-12T08:12:14.390Z,8.17
2017-09-12T08:14:43.022Z,8.50
2017-09-12T08:17:11.750Z,9.07
2017-09-12T08:19:40.119Z,8.43
2017-09-12T08:22:08.766Z,8.70
2017-09-12T08:24:37.113Z,9.73
2017-09-12T08:27:07.120Z,9.50
2017-09-12T08:29:36.828Z,8.23
2017-09-12T08:32:05.176Z,7.63
2017-09-12T08:34:33.628Z,8.87
2017-09-12T08:37:02.518Z,7.90
2017-09-12T08:39:30.888Z,8.50
2017-09-12T08:42:00.303Z,7.10
2017-09-12T08:44:29.894Z,7.10
2017-09-12T08:46:58.255Z,7.50
2017-09-12T08:49:26.605Z,6.60
2017-09-12T08:51:56.257Z,6.47
2017-09-12T08:54:24.622Z,6.00
2017-09-12T08:56:53.321Z,5.43
2017-09-12T08:59:21.966Z,5.90
2017-09-12T09:01:51.594Z,5.70
2017-09-12T09:04:20.790Z,6.40
2017-09-12T09:06:49.563Z,7.20
2017-09-12T09:09:19.888Z,6.20
2017-09-12T09:11:48.284Z,5.00
2017-09-12T09:14:17.414Z,5.40
2017-09-12T09:16:45.794Z,5.33
2017-09-12T09:19:14.205Z,6.03
2017-09-12T09:21:43.157Z,5.63
2017-09-12T09:24:11.526Z,5.30
2017-09-12T09:26:39.919Z,6.47
2017-09-12T09:29:08.829Z,5.57
2017-09-12T09:31:37.881Z,5.77
2017-09-12T09:34:06.238Z,4.30
2017-09-12T09:36:36.547Z,6.10
2017-09-12T09:39:04.924Z,5.67
2017-09-12T09:41:34.191Z,4.90
2017-09-12T09:44:03.362Z,5.00
2017-09-12T09:46:31.753Z,5.37
2017-09-12T09:49:01.917Z,5.17
2017-09-12T09:51:33.026Z,5.00
2017-09-12T09:54:01.742Z,4.67
2017-09-12T09:56:31.499Z,4.00
2017-09-12T09:59:00.618Z,3.50
2017-09-12T10:01:28.990Z,4.77
2017-09-12T10:03:57.658Z,4.37
2017-09-12T10:06:26.796Z,4.43
2017-09-12T10:08:55.167Z,5.17
2017-09-12T10:11:23.840Z,5.60
2017-09-12T10:13:52.268Z,4.90
2017-09-12T10:16:20.627Z,4.07
2017-09-12T10:18:49.484Z,4.43
2017-09-12T10:21:18.595Z,4.13
2017-09-12T10:23:47.777Z,5.20
2017-09-12T10:26:16.582Z,4.20
2017-09-12T10:28:45.014Z,4.27
2017-09-12T10:31:13.378Z,5.10
2017-09-12T10:33:42.139Z,5.13
2017-09-12T10:36:10.472Z,4.33
2017-09-12T10:38:38.833Z,3.73
2017-09-12T10:41:07.759Z,3.50
2017-09-12T10:43:36.142Z,3.10
2017-09-12T10:46:04.543Z,4.47
2017-09-12T10:48:33.603Z,4.27
2017-09-12T10:51:02.726Z,3.90
2017-09-12T10:53:31.101Z,3.93
2017-09-12T10:56:01.386Z,3.43
2017-09-12T10:58:29.834Z,3.43
2017-09-12T11:01:00.239Z,4.20
2017-09-12T11:03:28.939Z,6.03
2017-09-12T11:05:57.296Z,4.97
2017-09-12T11:08:25.654Z,3.77
2017-09-12T11:10:54.552Z,4.30
2017-09-12T11:13:23.668Z,3.70
2017-09-12T11:15:52.042Z,3.40
2017-09-12T11:18:20.711Z,3.90
2017-09-12T11:20:49.879Z,4.83
2017-09-12T11:23:19.413Z,3.87
2017-09-12T11:25:48.219Z,4.40
2017-09-12T11:28:16.596Z,3.77
2017-09-12T11:30:44.946Z,4.10
2017-09-12T11:33:14.355Z,4.40
2017-09-12T11:35:43.391Z,3.90
2017-09-12T11:38:11.768Z,3.47
2017-09-12T11:40:40.464Z,3.80
2017-09-12T11:43:08.838Z,4.20
2017-09-12T11:45:37.302Z,3.93
2017-09-12T11:48:06.313Z,3.10
2017-09-12T11:50:34.673Z,3.70
2017-09-12T11:53:03.032Z,3.07
2017-09-12T11:55:31.672Z,3.23
2017-09-12T11:58:00.855Z,3.10
2017-09-12T12:00:29.945Z,2.60
2017-09-12T12:02:58.598Z,2.63
2017-09-12T12:05:26.979Z,3.40
2017-09-12T12:07:55.353Z,3.13
2017-09-12T12:10:25.294Z,3.37
2017-09-12T12:12:53.713Z,3.23
2017-09-12T12:15:22.067Z,3.50
2017-09-12T12:17:54.033Z,4.23
2017-09-12T12:20:22.372Z,3.20
2017-09-12T12:22:51.497Z,2.77
2017-09-12T12:25:20.282Z,3.37
2017-09-12T12:27:48.670Z,2.97
2017-09-12T12:30:19.760Z,2.63
2017-09-12T12:32:49.644Z,3.10
2017-09-12T12:35:18.069Z,2.77
2017-09-12T12:37:46.546Z,2.97
2017-09-12T12:40:15.226Z,2.87
2017-09-12T12:42:43.619Z,2.57
2017-09-12T12:45:13.298Z,3.30
2017-09-12T12:47:43.161Z,3.67
2017-09-12T12:50:11.629Z,2.93
2017-09-12T12:52:40.628Z,3.73
2017-09-12T12:55:10.369Z,3.50
2017-09-12T12:57:38.726Z,3.20
2017-09-12T13:00:07.966Z,3.10
2017-09-12T13:02:37.291Z,3.20
2017-09-12T13:05:05.641Z,3.20
2017-09-12T13:07:34.293Z,3.57
2017-09-12T13:10:03.829Z,3.70
2017-09-12T13:12:32.204Z,5.80
2017-09-12T13:15:00.587Z,3.57
2017-09-12T13:17:30.054Z,3.90
2017-09-12T13:19:58.504Z,3.13
2017-09-12T13:22:27.325Z,4.10
2017-09-12T13:24:56.013Z,3.47
2017-09-12T13:27:26.062Z,3.23
2017-09-12T13:29:55.265Z,3.13
2017-09-12T13:32:24.236Z,3.07
2017-09-12T13:34:52.760Z,4.00
2017-09-12T13:37:21.721Z,3.70
2017-09-12T13:39:51.514Z,3.40
2017-09-12T13:42:19.926Z,3.20
2017-09-12T13:44:48.774Z,3.63
2017-09-12T13:47:18.718Z,3.40
2017-09-12T13:49:47.649Z,3.40
2017-09-12T13:52:16.171Z,4.40
2017-09-12T13:54:45.880Z,2.90
2017-09-12T13:57:14.219Z,3.30
2017-09-12T13:59:43.405Z,2.60
2017-09-12T14:02:12.097Z,2.30
2017-09-12T14:04:40.456Z,2.13
2017-09-12T14:07:09.560Z,2.53
2017-09-12T14:09:38.252Z,2.70
2017-09-12T14:12:07.286Z,2.97
2017-09-12T14:14:35.675Z,2.00
2017-09-12T14:17:04.352Z,3.03
2017-09-12T14:19:33.465Z,2.27
2017-09-12T14:22:01.879Z,2.13
2017-09-12T14:24:31.059Z,2.93
2017-09-12T14:26:59.465Z,2.80
2017-09-12T14:29:27.802Z,2.50
2017-09-12T14:31:57.266Z,4.20
2017-09-12T14:34:25.626Z,2.50
2017-09-12T14:36:53.986Z,2.43
2017-09-12T14:39:22.666Z,2.57
2017-09-12T14:41:52.776Z,2.30
2017-09-12T14:44:21.137Z,1.77
2017-09-12T14:46:50.716Z,1.93
2017-09-12T14:49:19.074Z,1.97
2017-09-12T14:51:47.705Z,1.60
2017-09-12T14:54:16.618Z,1.47
2017-09-12T14:56:44.974Z,2.03
2017-09-12T14:59:14.093Z,1.20
2017-09-12T15:01:42.719Z,1.23
2017-09-12T15:04:12.033Z,1.40
2017-09-12T15:06:40.362Z,1.53
2017-09-12T15:09:10.173Z,1.20
2017-09-12T15:11:38.509Z,1.60
2017-09-12T15:14:06.852Z,2.60
2017-09-12T15:16:35.478Z,1.63
2017-09-12T15:19:03.846Z,1.53
2017-09-12T15:21:32.242Z,1.60
2017-09-12T15:24:00.859Z,2.13
2017-09-12T15:26:29.271Z,1.60
2017-09-12T15:28:57.621Z,2.00
2017-09-12T15:31:26.566Z,2.10
2017-09-12T15:33:54.936Z,1.50
2017-09-12T15:36:24.227Z,1.90
2017-09-12T15:38:52.974Z,2.10
2017-09-12T15:41:21.307Z,1.50
2017-09-12T15:43:49.674Z,1.90
2017-09-12T15:46:18.448Z,2.20
2017-09-12T15:48:46.790Z,2.23
2017-09-12T15:51:15.906Z,1.97
2017-09-12T15:53:45.641Z,1.70
2017-09-12T15:56:14.549Z,2.30
2017-09-12T15:58:42.882Z,2.20
2017-09-12T16:01:12.227Z,2.00
2017-09-12T16:03:42.318Z,2.50
2017-09-12T16:06:11.671Z,1.70
2017-09-12T16:08:41.320Z,2.40
2017-09-12T16:11:09.678Z,2.57
2017-09-12T16:13:39.398Z,2.20
2017-09-12T16:16:08.185Z,2.77
2017-09-12T16:18:36.533Z,2.90
2017-09-12T16:21:05.751Z,2.27
2017-09-12T16:23:34.649Z,2.60
2017-09-12T16:26:03.075Z,2.97
2017-09-12T16:28:31.435Z,2.40
2017-09-12T16:31:00.330Z,2.50
2017-09-12T16:33:28.681Z,3.30
2017-09-12T16:35:57.041Z,2.60
2017-09-12T16:38:26.616Z,2.43
2017-09-12T16:40:54.988Z,2.17
2017-09-12T16:43:24.263Z,2.23
2017-09-12T16:45:53.507Z,2.13
2017-09-12T16:48:22.603Z,3.13
2017-09-12T16:50:51.749Z,2.13
2017-09-12T16:53:20.531Z,2.20
2017-09-12T16:55:49.460Z,2.70
2017-09-12T16:58:17.838Z,2.00
2017-09-12T17:00:47.994Z,2.00
2017-09-12T17:03:16.636Z,2.20
2017-09-12T17:05:45.001Z,2.20
2017-09-12T17:08:13.879Z,2.63
2017-09-12T17:10:42.643Z,1.90
2017-09-12T17:13:11.207Z,2.23
2017-09-12T17:15:39.759Z,1.70
2017-09-12T17:18:08.108Z,1.97
2017-09-12T17:20:36.493Z,2.50
2017-09-12T17:23:05.645Z,1.80
2017-09-12T17:25:33.999Z,2.30
2017-09-12T17:28:02.339Z,2.30
2017-09-12T17:30:31.267Z,2.10
2017-09-12T17:32:59.617Z,1.87
2017-09-12T17:35:29.478Z,2.03
2017-09-12T17:37:58.161Z,2.50
2017-09-12T17:40:26.517Z,2.67
2017-09-12T17:42:55.611Z,2.17
2017-09-12T17:45:24.503Z,2.40
2017-09-12T17:47:52.941Z,2.37
2017-09-12T17:50:21.312Z,2.20
2017-09-12T17:52:49.842Z,2.00
2017-09-12T17:55:18.211Z,2.20
2017-09-12T17:57:46.558Z,2.00
2017-09-12T18:00:16.413Z,2.83
2017-09-12T18:02:45.129Z,2.17
2017-09-12T18:05:13.505Z,2.77
2017-09-12T18:07:43.449Z,2.23
2017-09-12T18:10:11.893Z,3.03
2017-09-12T18:12:40.266Z,2.30
2017-09-12T18:15:09.057Z,2.43
2017-09-12T18:17:37.419Z,2.70
2017-09-12T18:20:05.795Z,2.30
2017-09-12T18:22:35.475Z,2.60
2017-09-12T18:25:04.672Z,3.43
2017-09-12T18:27:33.036Z,2.20
2017-09-12T18:30:02.548Z,2.80
2017-09-12T18:32:31.726Z,2.30
2017-09-12T18:35:00.103Z,2.10
2017-09-12T18:37:28.852Z,2.40
2017-09-12T18:40:00.909Z,2.17
2017-09-12T18:42:30.800Z,2.03
2017-09-12T18:44:59.167Z,2.10
2017-09-12T18:47:27.936Z,2.37
2017-09-12T18:49:56.806Z,2.20
2017-09-12T18:52:26.895Z,1.90
2017-09-12T18:54:56.129Z,2.67
2017-09-12T18:57:24.830Z,1.83
2017-09-12T18:59:53.189Z,2.40
2017-09-12T19:02:21.959Z,2.23
2017-09-12T19:04:51.839Z,1.90
2017-09-12T19:07:20.368Z,2.50
2017-09-12T19:09:49.489Z,2.30
2017-09-12T19:12:18.430Z,2.20
2017-09-12T19:14:46.900Z,2.40
2017-09-12T19:17:15.481Z,2.33
2017-09-12T19:19:44.517Z,2.20
2017-09-12T19:22:12.885Z,1.93
2017-09-12T19:24:42.051Z,2.10
2017-09-12T19:27:11.617Z,2.00
2017-09-12T19:29:42.487Z,2.30
2017-09-12T19:32:10.860Z,2.60
2017-09-12T19:34:41.669Z,2.23
2017-09-12T19:37:10.318Z,1.77
2017-09-12T19:39:39.444Z,2.83
2017-09-12T19:42:08.929Z,2.07
2017-09-12T19:44:37.360Z,2.50
2017-09-12T19:47:06.106Z,2.37
2017-09-12T19:49:34.738Z,2.57
2017-09-12T19:52:03.146Z,2.83
2017-09-12T19:54:31.803Z,2.83
2017-09-12T19:57:01.821Z,2.73
2017-09-12T19:59:30.199Z,2.27
2017-09-12T20:02:00.466Z,2.30
2017-09-12T20:04:29.887Z,2.60
2017-09-12T20:06:59.052Z,2.13
2017-09-12T20:09:28.194Z,2.20
2017-09-12T20:11:56.925Z,2.10
2017-09-12T20:14:26.071Z,2.17
2017-09-12T20:16:55.262Z,2.57
2017-09-12T20:19:24.502Z,2.17
2017-09-12T20:21:53.926Z,2.30
2017-09-12T20:24:22.278Z,2.37
2017-09-12T20:26:51.326Z,2.23
2017-09-12T20:29:19.926Z,1.80
2017-09-12T20:31:51.807Z,2.93
2017-09-12T20:34:20.715Z,2.20
2017-09-12T20:36:49.829Z,2.23
2017-09-12T20:39:18.218Z,2.83
2017-09-12T20:41:47.050Z,2.80
2017-09-12T20:44:16.664Z,2.50
2017-09-12T20:46:45.899Z,2.10
2017-09-12T20:49:14.554Z,2.50
2017-09-12T20:51:43.000Z,2.40
2017-09-12T20:54:12.258Z,3.40
2017-09-12T20:56:44.484Z,2.63
2017-09-12T20:59:13.038Z,2.77
2017-09-12T21:01:41.987Z,2.80
2017-09-12T21:04:11.317Z,2.53
2017-09-12T21:06:39.802Z,2.50
2017-09-12T21:09:08.161Z,2.77
2017-09-12T21:11:37.016Z,2.73
2017-09-12T21:14:06.777Z,3.63
2017-09-12T21:16:36.172Z,2.90
2017-09-12T21:19:05.598Z,2.50
2017-09-12T21:21:34.066Z,2.00
2017-09-12T21:24:02.758Z,3.00
2017-09-12T21:26:31.668Z,2.70
2017-09-12T21:29:00.887Z,2.70
2017-09-12T21:31:29.999Z,2.33
2017-09-12T21:33:59.429Z,2.37
2017-09-12T21:36:27.960Z,2.70
2017-09-12T21:38:57.267Z,2.67
2017-09-12T21:41:27.352Z,2.47
2017-09-12T21:43:57.663Z,3.07
2017-09-12T21:46:27.845Z,2.57
2017-09-12T21:48:56.388Z,2.20
2017-09-12T21:51:24.885Z,2.40
2017-09-12T21:53:55.809Z,2.97
2017-09-12T21:56:24.426Z,2.20
2017-09-12T21:58:53.826Z,2.33
2017-09-12T22:01:22.520Z,2.70
2017-09-12T22:03:51.730Z,2.70
2017-09-12T22:06:20.165Z,3.60
2017-09-12T22:08:49.036Z,2.90
2017-09-12T22:11:17.665Z,2.70
2017-09-12T22:13:46.027Z,3.33
2017-09-12T22:16:15.836Z,2.90
2017-09-12T22:18:44.991Z,2.37
2017-09-12T22:21:13.350Z,2.97
2017-09-12T22:23:42.293Z,3.20
2017-09-12T22:26:10.892Z,3.17
2017-09-12T22:28:39.315Z,3.03
2017-09-12T22:31:08.374Z,3.17
2017-09-12T22:33:37.482Z,3.40
2017-09-12T22:36:05.870Z,3.57
2017-09-12T22:38:34.896Z,3.10
2017-09-12T22:41:03.702Z,3.17
2017-09-12T22:43:32.050Z,3.33
2017-09-12T22:46:00.919Z,3.63
2017-09-12T22:48:29.298Z,3.53
2017-09-12T22:50:58.354Z,3.37
2017-09-12T22:53:27.650Z,3.60
2017-09-12T22:55:56.057Z,3.77
2017-09-12T22:58:25.354Z,3.90
2017-09-12T23:00:54.530Z,3.80
2017-09-12T23:03:22.904Z,4.00
2017-09-12T23:05:51.905Z,4.10
2017-09-12T23:08:20.630Z,3.87
2017-09-12T23:10:49.025Z,3.70
2017-09-12T23:13:17.430Z,4.07
2017-09-12T23:15:46.547Z,3.93
2017-09-12T23:18:14.914Z,3.43
2017-09-12T23:20:45.147Z,4.40
2017-09-12T23:23:15.160Z,3.80
2017-09-12T23:25:44.249Z,3.70
2017-09-12T23:28:12.640Z,4.27
2017-09-12T23:30:41.415Z,3.93
2017-09-12T23:33:09.806Z,4.07
2017-09-12T23:35:38.978Z,4.47
2017-09-12T23:38:08.097Z,4.63
2017-09-12T23:40:36.468Z,4.47
2017-09-12T23:43:05.251Z,4.70
2017-09-12T23:45:33.877Z,4.30
2017-09-12T23:48:03.089Z,4.60
2017-09-12T23:50:31.494Z,4.30
2017-09-12T23:53:00.360Z,5.03
2017-09-12T23:55:28.751Z,4.20
2017-09-12T23:57:57.149Z,4.33
